sensor_id;sensor_type;location;lat;lon;timestamp;P1;durP1;ratioP1;P2;durP2;ratioP2
31450;SDS011;18070;52.474;13.304;2023-09-07T00:01:05;11.57;;;7.47;;
31450;SDS011;18070;52.474;13.304;2023-09-07T00:03:32;11.00;;;7.10;;
31450;SDS011;18070;52.474;13.304;2023-09-07T00:05:57;9.68;;;6.80;;
31450;SDS011;18070;52.474;13.304;2023-09-07T00:08:23;9.35;;;7.07;;
31450;SDS011;18070;52.474;13.304;2023-09-07T00:10:50;12.45;;;6.78;;
31450;SDS011;18070;52.474;13.304;2023-09-07T00:13:16;12.15;;;7.30;;
31450;SDS011;18070;52.474;13.304;2023-09-07T00:15:42;16.52;;;7.22;;
31450;SDS011;18070;52.474;13.304;2023-09-07T00:18:07;11.68;;;6.38;;
31450;SDS011;18070;52.474;13.304;2023-09-07T00:20:33;15.65;;;6.60;;
31450;SDS011;18070;52.474;13.304;2023-09-07T00:22:59;10.02;;;6.50;;
31450;SDS011;18070;52.474;13.304;2023-09-07T00:25:25;12.60;;;6.50;;
31450;SDS011;18070;52.474;13.304;2023-09-07T00:27:51;16.58;;;7.13;;
31450;SDS011;18070;52.474;13.304;2023-09-07T00:30:17;11.65;;;7.57;;
31450;SDS011;18070;52.474;13.304;2023-09-07T00:32:43;10.48;;;7.38;;
31450;SDS011;18070;52.474;13.304;2023-09-07T00:35:08;10.02;;;6.75;;
31450;SDS011;18070;52.474;13.304;2023-09-07T00:37:34;8.95;;;6.60;;
31450;SDS011;18070;52.474;13.304;2023-09-07T00:40:00;13.27;;;7.30;;
31450;SDS011;18070;52.474;13.304;2023-09-07T00:42:25;12.90;;;6.93;;
31450;SDS011;18070;52.474;13.304;2023-09-07T00:44:51;8.07;;;6.38;;
31450;SDS011;18070;52.474;13.304;2023-09-07T00:47:16;12.25;;;6.68;;
31450;SDS011;18070;52.474;13.304;2023-09-07T00:49:43;10.45;;;7.38;;
31450;SDS011;18070;52.474;13.304;2023-09-07T00:52:09;10.82;;;7.28;;
31450;SDS011;18070;52.474;13.304;2023-09-07T00:54:35;11.05;;;7.60;;
31450;SDS011;18070;52.474;13.304;2023-09-07T00:57:04;8.50;;;7.00;;
31450;SDS011;18070;52.474;13.304;2023-09-07T00:59:32;11.90;;;7.63;;
31450;SDS011;18070;52.474;13.304;2023-09-07T01:01:59;11.55;;;7.47;;
31450;SDS011;18070;52.474;13.304;2023-09-07T01:04:24;12.88;;;6.80;;
31450;SDS011;18070;52.474;13.304;2023-09-07T01:06:57;9.98;;;6.85;;
31450;SDS011;18070;52.474;13.304;2023-09-07T01:09:40;12.18;;;7.78;;
31450;SDS011;18070;52.474;13.304;2023-09-07T01:12:07;9.73;;;7.65;;
31450;SDS011;18070;52.474;13.304;2023-09-07T01:14:36;12.05;;;6.97;;
31450;SDS011;18070;52.474;13.304;2023-09-07T01:17:02;9.75;;;7.40;;
31450;SDS011;18070;52.474;13.304;2023-09-07T01:19:28;12.02;;;7.57;;
31450;SDS011;18070;52.474;13.304;2023-09-07T01:21:54;13.63;;;8.20;;
31450;SDS011;18070;52.474;13.304;2023-09-07T01:24:20;10.38;;;7.72;;
31450;SDS011;18070;52.474;13.304;2023-09-07T01:26:46;14.60;;;7.85;;
31450;SDS011;18070;52.474;13.304;2023-09-07T01:29:14;13.82;;;7.00;;
31450;SDS011;18070;52.474;13.304;2023-09-07T01:31:41;13.63;;;7.32;;
31450;SDS011;18070;52.474;13.304;2023-09-07T01:34:07;10.80;;;7.32;;
31450;SDS011;18070;52.474;13.304;2023-09-07T01:36:33;11.45;;;7.60;;
31450;SDS011;18070;52.474;13.304;2023-09-07T01:39:00;11.82;;;7.55;;
31450;SDS011;18070;52.474;13.304;2023-09-07T01:41:26;9.60;;;7.15;;
31450;SDS011;18070;52.474;13.304;2023-09-07T01:43:51;8.70;;;7.10;;
31450;SDS011;18070;52.474;13.304;2023-09-07T01:46:17;10.00;;;7.35;;
31450;SDS011;18070;52.474;13.304;2023-09-07T01:48:43;10.70;;;6.63;;
31450;SDS011;18070;52.474;13.304;2023-09-07T01:51:08;15.68;;;7.78;;
31450;SDS011;18070;52.474;13.304;2023-09-07T01:53:34;14.70;;;7.68;;
31450;SDS011;18070;52.474;13.304;2023-09-07T01:56:00;11.57;;;7.50;;
31450;SDS011;18070;52.474;13.304;2023-09-07T01:58:25;10.98;;;8.13;;
31450;SDS011;18070;52.474;13.304;2023-09-07T02:00:57;10.80;;;7.63;;
31450;SDS011;18070;52.474;13.304;2023-09-07T02:03:23;10.20;;;7.63;;
31450;SDS011;18070;52.474;13.304;2023-09-07T02:05:50;12.27;;;7.20;;
31450;SDS011;18070;52.474;13.304;2023-09-07T02:08:15;12.23;;;7.80;;
31450;SDS011;18070;52.474;13.304;2023-09-07T02:10:41;10.38;;;7.47;;
31450;SDS011;18070;52.474;13.304;2023-09-07T02:13:07;13.10;;;8.05;;
31450;SDS011;18070;52.474;13.304;2023-09-07T02:15:33;9.82;;;7.68;;
31450;SDS011;18070;52.474;13.304;2023-09-07T02:17:58;12.13;;;8.48;;
31450;SDS011;18070;52.474;13.304;2023-09-07T02:20:24;11.23;;;7.63;;
31450;SDS011;18070;52.474;13.304;2023-09-07T02:22:49;11.10;;;7.32;;
31450;SDS011;18070;52.474;13.304;2023-09-07T02:25:15;12.35;;;8.02;;
31450;SDS011;18070;52.474;13.304;2023-09-07T02:27:41;13.60;;;8.25;;
31450;SDS011;18070;52.474;13.304;2023-09-07T02:30:06;14.60;;;8.18;;
31450;SDS011;18070;52.474;13.304;2023-09-07T02:32:32;13.85;;;7.32;;
31450;SDS011;18070;52.474;13.304;2023-09-07T02:34:58;14.23;;;7.88;;
31450;SDS011;18070;52.474;13.304;2023-09-07T02:37:23;11.75;;;7.93;;
31450;SDS011;18070;52.474;13.304;2023-09-07T02:39:49;13.25;;;7.82;;
31450;SDS011;18070;52.474;13.304;2023-09-07T02:42:15;16.65;;;8.32;;
31450;SDS011;18070;52.474;13.304;2023-09-07T02:44:41;10.73;;;8.30;;
31450;SDS011;18070;52.474;13.304;2023-09-07T02:47:06;11.75;;;7.78;;
31450;SDS011;18070;52.474;13.304;2023-09-07T02:49:32;10.73;;;8.50;;
31450;SDS011;18070;52.474;13.304;2023-09-07T02:51:58;14.73;;;9.27;;
31450;SDS011;18070;52.474;13.304;2023-09-07T02:54:23;13.32;;;8.85;;
31450;SDS011;18070;52.474;13.304;2023-09-07T02:56:49;13.88;;;7.80;;
31450;SDS011;18070;52.474;13.304;2023-09-07T02:59:15;12.30;;;7.70;;
31450;SDS011;18070;52.474;13.304;2023-09-07T03:01:40;14.27;;;8.65;;
31450;SDS011;18070;52.474;13.304;2023-09-07T03:04:06;12.75;;;7.78;;
31450;SDS011;18070;52.474;13.304;2023-09-07T03:06:32;12.13;;;8.52;;
31450;SDS011;18070;52.474;13.304;2023-09-07T03:08:58;13.18;;;7.43;;
31450;SDS011;18070;52.474;13.304;2023-09-07T03:11:24;13.98;;;8.18;;
31450;SDS011;18070;52.474;13.304;2023-09-07T03:13:50;11.05;;;8.50;;
31450;SDS011;18070;52.474;13.304;2023-09-07T03:16:15;11.95;;;7.93;;
31450;SDS011;18070;52.474;13.304;2023-09-07T03:18:41;10.90;;;8.15;;
31450;SDS011;18070;52.474;13.304;2023-09-07T03:21:07;16.02;;;8.43;;
31450;SDS011;18070;52.474;13.304;2023-09-07T03:23:32;10.18;;;7.75;;
31450;SDS011;18070;52.474;13.304;2023-09-07T03:25:58;11.27;;;8.02;;
31450;SDS011;18070;52.474;13.304;2023-09-07T03:28:25;13.95;;;8.05;;
31450;SDS011;18070;52.474;13.304;2023-09-07T03:30:51;13.18;;;8.27;;
31450;SDS011;18070;52.474;13.304;2023-09-07T03:33:18;14.88;;;7.53;;
31450;SDS011;18070;52.474;13.304;2023-09-07T03:35:44;11.93;;;8.32;;
31450;SDS011;18070;52.474;13.304;2023-09-07T03:38:10;16.83;;;7.45;;
31450;SDS011;18070;52.474;13.304;2023-09-07T03:40:36;14.02;;;7.82;;
31450;SDS011;18070;52.474;13.304;2023-09-07T03:43:01;13.50;;;7.78;;
31450;SDS011;18070;52.474;13.304;2023-09-07T03:45:27;11.82;;;7.85;;
31450;SDS011;18070;52.474;13.304;2023-09-07T03:47:53;12.30;;;7.72;;
31450;SDS011;18070;52.474;13.304;2023-09-07T03:50:18;18.08;;;8.43;;
31450;SDS011;18070;52.474;13.304;2023-09-07T03:52:44;14.38;;;8.35;;
31450;SDS011;18070;52.474;13.304;2023-09-07T03:55:09;11.70;;;8.15;;
31450;SDS011;18070;52.474;13.304;2023-09-07T03:57:35;11.02;;;7.57;;
31450;SDS011;18070;52.474;13.304;2023-09-07T04:00:01;11.48;;;8.00;;
31450;SDS011;18070;52.474;13.304;2023-09-07T04:02:32;16.85;;;8.07;;
31450;SDS011;18070;52.474;13.304;2023-09-07T04:04:57;9.95;;;7.50;;
31450;SDS011;18070;52.474;13.304;2023-09-07T04:07:23;11.15;;;7.55;;
31450;SDS011;18070;52.474;13.304;2023-09-07T04:09:49;14.05;;;7.25;;
31450;SDS011;18070;52.474;13.304;2023-09-07T04:12:15;15.13;;;8.15;;
31450;SDS011;18070;52.474;13.304;2023-09-07T04:14:40;13.13;;;8.23;;
31450;SDS011;18070;52.474;13.304;2023-09-07T04:17:07;16.65;;;8.20;;
31450;SDS011;18070;52.474;13.304;2023-09-07T04:19:33;13.07;;;9.00;;
31450;SDS011;18070;52.474;13.304;2023-09-07T04:21:58;12.40;;;8.52;;
31450;SDS011;18070;52.474;13.304;2023-09-07T04:24:25;11.77;;;8.43;;
31450;SDS011;18070;52.474;13.304;2023-09-07T04:26:52;10.48;;;7.93;;
31450;SDS011;18070;52.474;13.304;2023-09-07T04:29:17;14.32;;;8.93;;
31450;SDS011;18070;52.474;13.304;2023-09-07T04:31:43;12.63;;;8.27;;
31450;SDS011;18070;52.474;13.304;2023-09-07T04:34:08;18.45;;;8.05;;
31450;SDS011;18070;52.474;13.304;2023-09-07T04:36:34;11.05;;;8.05;;
31450;SDS011;18070;52.474;13.304;2023-09-07T04:39:00;15.27;;;8.00;;
31450;SDS011;18070;52.474;13.304;2023-09-07T04:41:25;12.45;;;8.40;;
31450;SDS011;18070;52.474;13.304;2023-09-07T04:43:51;10.82;;;7.80;;
31450;SDS011;18070;52.474;13.304;2023-09-07T04:46:17;15.57;;;9.20;;
31450;SDS011;18070;52.474;13.304;2023-09-07T04:48:46;14.43;;;9.00;;
31450;SDS011;18070;52.474;13.304;2023-09-07T04:51:12;13.02;;;8.75;;
31450;SDS011;18070;52.474;13.304;2023-09-07T04:53:38;13.95;;;8.60;;
31450;SDS011;18070;52.474;13.304;2023-09-07T04:56:04;17.75;;;8.40;;
31450;SDS011;18070;52.474;13.304;2023-09-07T04:58:30;12.15;;;8.70;;
31450;SDS011;18070;52.474;13.304;2023-09-07T05:01:03;12.65;;;8.43;;
31450;SDS011;18070;52.474;13.304;2023-09-07T05:03:36;12.57;;;8.75;;
31450;SDS011;18070;52.474;13.304;2023-09-07T05:06:02;16.95;;;7.93;;
31450;SDS011;18070;52.474;13.304;2023-09-07T05:08:28;13.90;;;8.40;;
31450;SDS011;18070;52.474;13.304;2023-09-07T05:10:55;15.07;;;8.32;;
31450;SDS011;18070;52.474;13.304;2023-09-07T05:13:22;18.30;;;9.18;;
31450;SDS011;18070;52.474;13.304;2023-09-07T05:15:48;13.93;;;8.98;;
31450;SDS011;18070;52.474;13.304;2023-09-07T05:18:14;15.82;;;8.73;;
31450;SDS011;18070;52.474;13.304;2023-09-07T05:20:40;12.48;;;8.43;;
31450;SDS011;18070;52.474;13.304;2023-09-07T05:23:06;10.57;;;7.57;;
31450;SDS011;18070;52.474;13.304;2023-09-07T05:25:31;14.55;;;7.80;;
31450;SDS011;18070;52.474;13.304;2023-09-07T05:27:57;12.80;;;8.18;;
31450;SDS011;18070;52.474;13.304;2023-09-07T05:30:23;18.48;;;9.23;;
31450;SDS011;18070;52.474;13.304;2023-09-07T05:32:48;13.15;;;8.90;;
31450;SDS011;18070;52.474;13.304;2023-09-07T05:35:14;14.73;;;8.32;;
31450;SDS011;18070;52.474;13.304;2023-09-07T05:37:41;20.20;;;9.48;;
31450;SDS011;18070;52.474;13.304;2023-09-07T05:40:07;12.73;;;8.93;;
31450;SDS011;18070;52.474;13.304;2023-09-07T05:42:33;15.52;;;8.95;;
31450;SDS011;18070;52.474;13.304;2023-09-07T05:44:59;14.77;;;8.70;;
31450;SDS011;18070;52.474;13.304;2023-09-07T05:47:24;14.10;;;8.63;;
31450;SDS011;18070;52.474;13.304;2023-09-07T05:49:51;12.80;;;8.38;;
31450;SDS011;18070;52.474;13.304;2023-09-07T05:52:17;16.92;;;8.85;;
31450;SDS011;18070;52.474;13.304;2023-09-07T05:54:42;16.38;;;8.63;;
31450;SDS011;18070;52.474;13.304;2023-09-07T05:57:08;13.90;;;7.72;;
31450;SDS011;18070;52.474;13.304;2023-09-07T05:59:33;17.98;;;8.63;;
31450;SDS011;18070;52.474;13.304;2023-09-07T06:01:59;14.23;;;8.52;;
31450;SDS011;18070;52.474;13.304;2023-09-07T06:04:25;15.10;;;8.80;;
31450;SDS011;18070;52.474;13.304;2023-09-07T06:06:51;9.70;;;7.20;;
31450;SDS011;18070;52.474;13.304;2023-09-07T06:09:16;20.90;;;8.32;;
31450;SDS011;18070;52.474;13.304;2023-09-07T06:11:42;17.25;;;8.95;;
31450;SDS011;18070;52.474;13.304;2023-09-07T06:14:08;13.40;;;7.80;;
31450;SDS011;18070;52.474;13.304;2023-09-07T06:16:33;15.23;;;7.60;;
31450;SDS011;18070;52.474;13.304;2023-09-07T06:19:00;14.82;;;7.88;;
31450;SDS011;18070;52.474;13.304;2023-09-07T06:21:25;12.90;;;7.28;;
31450;SDS011;18070;52.474;13.304;2023-09-07T06:23:51;12.68;;;6.60;;
31450;SDS011;18070;52.474;13.304;2023-09-07T06:26:16;13.05;;;7.60;;
31450;SDS011;18070;52.474;13.304;2023-09-07T06:28:43;20.90;;;8.40;;
31450;SDS011;18070;52.474;13.304;2023-09-07T06:31:08;12.20;;;7.35;;
31450;SDS011;18070;52.474;13.304;2023-09-07T06:33:34;16.88;;;8.27;;
31450;SDS011;18070;52.474;13.304;2023-09-07T06:35:59;15.23;;;7.50;;
31450;SDS011;18070;52.474;13.304;2023-09-07T06:38:27;9.60;;;7.45;;
31450;SDS011;18070;52.474;13.304;2023-09-07T06:40:53;13.02;;;8.32;;
31450;SDS011;18070;52.474;13.304;2023-09-07T06:43:18;15.07;;;7.60;;
31450;SDS011;18070;52.474;13.304;2023-09-07T06:45:44;15.43;;;8.27;;
31450;SDS011;18070;52.474;13.304;2023-09-07T06:48:09;12.88;;;6.88;;
31450;SDS011;18070;52.474;13.304;2023-09-07T06:50:35;15.75;;;7.63;;
31450;SDS011;18070;52.474;13.304;2023-09-07T06:53:01;14.25;;;8.27;;
31450;SDS011;18070;52.474;13.304;2023-09-07T06:55:27;15.38;;;6.95;;
31450;SDS011;18070;52.474;13.304;2023-09-07T06:57:54;12.55;;;6.93;;
31450;SDS011;18070;52.474;13.304;2023-09-07T07:00:20;10.40;;;7.65;;
31450;SDS011;18070;52.474;13.304;2023-09-07T07:02:46;9.57;;;7.32;;
31450;SDS011;18070;52.474;13.304;2023-09-07T07:05:12;16.55;;;7.38;;
31450;SDS011;18070;52.474;13.304;2023-09-07T07:07:38;15.57;;;7.18;;
31450;SDS011;18070;52.474;13.304;2023-09-07T07:10:03;16.08;;;7.78;;
31450;SDS011;18070;52.474;13.304;2023-09-07T07:12:30;17.10;;;6.82;;
31450;SDS011;18070;52.474;13.304;2023-09-07T07:14:59;16.27;;;7.10;;
31450;SDS011;18070;52.474;13.304;2023-09-07T07:17:25;13.73;;;7.13;;
31450;SDS011;18070;52.474;13.304;2023-09-07T07:19:51;12.95;;;6.57;;
31450;SDS011;18070;52.474;13.304;2023-09-07T07:22:16;11.95;;;6.55;;
31450;SDS011;18070;52.474;13.304;2023-09-07T07:24:42;15.52;;;6.93;;
31450;SDS011;18070;52.474;13.304;2023-09-07T07:27:08;21.67;;;7.85;;
31450;SDS011;18070;52.474;13.304;2023-09-07T07:29:35;11.40;;;6.68;;
31450;SDS011;18070;52.474;13.304;2023-09-07T07:32:02;22.23;;;7.32;;
31450;SDS011;18070;52.474;13.304;2023-09-07T07:34:28;10.60;;;5.70;;
31450;SDS011;18070;52.474;13.304;2023-09-07T07:36:54;11.20;;;6.60;;
31450;SDS011;18070;52.474;13.304;2023-09-07T07:39:20;11.95;;;6.60;;
31450;SDS011;18070;52.474;13.304;2023-09-07T07:41:45;16.23;;;6.40;;
31450;SDS011;18070;52.474;13.304;2023-09-07T07:44:11;8.40;;;6.53;;
31450;SDS011;18070;52.474;13.304;2023-09-07T07:46:37;11.15;;;5.85;;
31450;SDS011;18070;52.474;13.304;2023-09-07T07:49:02;16.63;;;6.47;;
31450;SDS011;18070;52.474;13.304;2023-09-07T07:51:28;13.20;;;6.05;;
31450;SDS011;18070;52.474;13.304;2023-09-07T07:53:54;10.77;;;6.07;;
31450;SDS011;18070;52.474;13.304;2023-09-07T07:56:21;9.85;;;5.95;;
31450;SDS011;18070;52.474;13.304;2023-09-07T07:58:48;13.68;;;5.95;;
31450;SDS011;18070;52.474;13.304;2023-09-07T08:01:15;14.80;;;6.15;;
31450;SDS011;18070;52.474;13.304;2023-09-07T08:03:41;11.27;;;5.93;;
31450;SDS011;18070;52.474;13.304;2023-09-07T08:06:08;13.05;;;6.03;;
31450;SDS011;18070;52.474;13.304;2023-09-07T08:08:34;11.20;;;6.03;;
31450;SDS011;18070;52.474;13.304;2023-09-07T08:10:59;10.68;;;4.90;;
31450;SDS011;18070;52.474;13.304;2023-09-07T08:13:29;8.00;;;4.85;;
31450;SDS011;18070;52.474;13.304;2023-09-07T08:15:55;11.35;;;5.45;;
31450;SDS011;18070;52.474;13.304;2023-09-07T08:18:21;13.70;;;5.78;;
31450;SDS011;18070;52.474;13.304;2023-09-07T08:20:48;14.52;;;6.03;;
31450;SDS011;18070;52.474;13.304;2023-09-07T08:23:14;11.52;;;5.53;;
31450;SDS011;18070;52.474;13.304;2023-09-07T08:25:39;11.52;;;5.55;;
31450;SDS011;18070;52.474;13.304;2023-09-07T08:28:09;15.07;;;5.10;;
31450;SDS011;18070;52.474;13.304;2023-09-07T08:30:36;11.55;;;5.38;;
31450;SDS011;18070;52.474;13.304;2023-09-07T08:33:01;13.95;;;4.90;;
31450;SDS011;18070;52.474;13.304;2023-09-07T08:35:27;12.10;;;4.82;;
31450;SDS011;18070;52.474;13.304;2023-09-07T08:37:56;10.55;;;5.03;;
31450;SDS011;18070;52.474;13.304;2023-09-07T08:40:23;12.05;;;5.55;;
31450;SDS011;18070;52.474;13.304;2023-09-07T08:42:52;9.60;;;4.43;;
31450;SDS011;18070;52.474;13.304;2023-09-07T08:45:18;9.82;;;4.80;;
31450;SDS011;18070;52.474;13.304;2023-09-07T08:47:47;11.73;;;4.68;;
31450;SDS011;18070;52.474;13.304;2023-09-07T08:50:15;10.07;;;5.20;;
31450;SDS011;18070;52.474;13.304;2023-09-07T08:52:42;9.25;;;4.63;;
31450;SDS011;18070;52.474;13.304;2023-09-07T08:55:10;10.25;;;4.35;;
31450;SDS011;18070;52.474;13.304;2023-09-07T08:57:37;9.88;;;4.30;;
31450;SDS011;18070;52.474;13.304;2023-09-07T09:00:03;10.93;;;4.60;;
31450;SDS011;18070;52.474;13.304;2023-09-07T09:02:39;13.93;;;4.07;;
31450;SDS011;18070;52.474;13.304;2023-09-07T09:05:05;7.38;;;4.75;;
31450;SDS011;18070;52.474;13.304;2023-09-07T09:07:33;8.00;;;4.30;;
31450;SDS011;18070;52.474;13.304;2023-09-07T09:10:06;8.80;;;4.18;;
31450;SDS011;18070;52.474;13.304;2023-09-07T09:12:32;16.95;;;4.80;;
31450;SDS011;18070;52.474;13.304;2023-09-07T09:14:59;7.47;;;4.20;;
31450;SDS011;18070;52.474;13.304;2023-09-07T09:17:26;11.18;;;4.60;;
31450;SDS011;18070;52.474;13.304;2023-09-07T09:19:52;5.03;;;3.88;;
31450;SDS011;18070;52.474;13.304;2023-09-07T09:22:17;9.82;;;5.00;;
31450;SDS011;18070;52.474;13.304;2023-09-07T09:24:47;7.60;;;4.78;;
31450;SDS011;18070;52.474;13.304;2023-09-07T09:27:13;10.60;;;4.43;;
31450;SDS011;18070;52.474;13.304;2023-09-07T09:29:38;12.32;;;4.63;;
31450;SDS011;18070;52.474;13.304;2023-09-07T09:32:05;7.45;;;4.55;;
31450;SDS011;18070;52.474;13.304;2023-09-07T09:34:35;7.20;;;4.43;;
31450;SDS011;18070;52.474;13.304;2023-09-07T09:37:02;10.88;;;4.53;;
31450;SDS011;18070;52.474;13.304;2023-09-07T09:39:29;9.32;;;5.13;;
31450;SDS011;18070;52.474;13.304;2023-09-07T09:41:55;7.68;;;4.38;;
31450;SDS011;18070;52.474;13.304;2023-09-07T09:44:21;8.55;;;4.40;;
31450;SDS011;18070;52.474;13.304;2023-09-07T09:46:53;8.00;;;4.40;;
31450;SDS011;18070;52.474;13.304;2023-09-07T09:49:21;7.30;;;4.63;;
31450;SDS011;18070;52.474;13.304;2023-09-07T09:51:48;10.27;;;4.55;;
31450;SDS011;18070;52.474;13.304;2023-09-07T09:54:16;9.85;;;4.45;;
31450;SDS011;18070;52.474;13.304;2023-09-07T09:56:43;8.95;;;4.53;;
31450;SDS011;18070;52.474;13.304;2023-09-07T09:59:09;9.07;;;4.45;;
31450;SDS011;18070;52.474;13.304;2023-09-07T10:01:40;30.85;;;5.13;;
31450;SDS011;18070;52.474;13.304;2023-09-07T10:04:15;7.65;;;5.03;;
31450;SDS011;18070;52.474;13.304;2023-09-07T10:06:58;5.30;;;4.25;;
31450;SDS011;18070;52.474;13.304;2023-09-07T10:09:30;7.45;;;4.35;;
31450;SDS011;18070;52.474;13.304;2023-09-07T10:11:58;6.30;;;4.53;;
31450;SDS011;18070;52.474;13.304;2023-09-07T10:14:25;11.07;;;4.47;;
31450;SDS011;18070;52.474;13.304;2023-09-07T10:16:51;11.23;;;4.70;;
31450;SDS011;18070;52.474;13.304;2023-09-07T10:19:21;6.22;;;4.68;;
31450;SDS011;18070;52.474;13.304;2023-09-07T10:21:52;6.45;;;3.72;;
31450;SDS011;18070;52.474;13.304;2023-09-07T10:24:29;9.95;;;4.07;;
31450;SDS011;18070;52.474;13.304;2023-09-07T10:27:04;4.55;;;3.65;;
31450;SDS011;18070;52.474;13.304;2023-09-07T10:29:41;7.47;;;4.32;;
31450;SDS011;18070;52.474;13.304;2023-09-07T10:32:08;7.15;;;3.92;;
31450;SDS011;18070;52.474;13.304;2023-09-07T10:34:37;6.90;;;4.10;;
31450;SDS011;18070;52.474;13.304;2023-09-07T10:37:04;6.07;;;4.03;;
31450;SDS011;18070;52.474;13.304;2023-09-07T10:39:32;6.88;;;4.18;;
31450;SDS011;18070;52.474;13.304;2023-09-07T10:41:58;7.35;;;3.80;;
31450;SDS011;18070;52.474;13.304;2023-09-07T10:44:26;6.85;;;4.13;;
31450;SDS011;18070;52.474;13.304;2023-09-07T10:46:53;5.03;;;3.53;;
31450;SDS011;18070;52.474;13.304;2023-09-07T10:49:19;8.27;;;4.07;;
31450;SDS011;18070;52.474;13.304;2023-09-07T10:51:46;5.68;;;3.83;;
31450;SDS011;18070;52.474;13.304;2023-09-07T10:54:45;6.32;;;4.15;;
31450;SDS011;18070;52.474;13.304;2023-09-07T10:57:10;5.60;;;3.60;;
31450;SDS011;18070;52.474;13.304;2023-09-07T10:59:38;7.32;;;3.75;;
31450;SDS011;18070;52.474;13.304;2023-09-07T11:02:09;9.10;;;3.90;;
31450;SDS011;18070;52.474;13.304;2023-09-07T11:04:34;6.28;;;3.92;;
31450;SDS011;18070;52.474;13.304;2023-09-07T11:07:00;7.85;;;4.00;;
31450;SDS011;18070;52.474;13.304;2023-09-07T11:09:27;6.03;;;3.80;;
31450;SDS011;18070;52.474;13.304;2023-09-07T11:11:55;6.03;;;3.67;;
31450;SDS011;18070;52.474;13.304;2023-09-07T11:14:21;5.45;;;3.85;;
31450;SDS011;18070;52.474;13.304;2023-09-07T11:16:47;4.40;;;3.95;;
31450;SDS011;18070;52.474;13.304;2023-09-07T11:19:13;5.82;;;3.28;;
31450;SDS011;18070;52.474;13.304;2023-09-07T11:21:43;9.27;;;3.55;;
31450;SDS011;18070;52.474;13.304;2023-09-07T11:24:09;6.15;;;3.80;;
31450;SDS011;18070;52.474;13.304;2023-09-07T11:26:44;5.32;;;3.50;;
31450;SDS011;18070;52.474;13.304;2023-09-07T11:29:14;5.75;;;3.58;;
31450;SDS011;18070;52.474;13.304;2023-09-07T11:31:40;10.35;;;4.20;;
31450;SDS011;18070;52.474;13.304;2023-09-07T11:34:09;6.15;;;3.75;;
31450;SDS011;18070;52.474;13.304;2023-09-07T11:36:36;6.57;;;3.72;;
31450;SDS011;18070;52.474;13.304;2023-09-07T11:39:02;4.85;;;3.83;;
31450;SDS011;18070;52.474;13.304;2023-09-07T11:41:37;6.22;;;4.07;;
31450;SDS011;18070;52.474;13.304;2023-09-07T11:44:06;5.65;;;3.70;;
31450;SDS011;18070;52.474;13.304;2023-09-07T11:46:32;5.50;;;4.13;;
31450;SDS011;18070;52.474;13.304;2023-09-07T11:48:57;6.43;;;3.47;;
31450;SDS011;18070;52.474;13.304;2023-09-07T11:51:24;9.73;;;3.83;;
31450;SDS011;18070;52.474;13.304;2023-09-07T11:53:49;7.88;;;3.40;;
31450;SDS011;18070;52.474;13.304;2023-09-07T11:56:15;5.63;;;3.63;;
31450;SDS011;18070;52.474;13.304;2023-09-07T11:58:41;8.85;;;3.95;;
31450;SDS011;18070;52.474;13.304;2023-09-07T12:01:07;5.22;;;3.53;;
31450;SDS011;18070;52.474;13.304;2023-09-07T12:03:34;3.67;;;3.10;;
31450;SDS011;18070;52.474;13.304;2023-09-07T12:05:59;9.38;;;3.90;;
31450;SDS011;18070;52.474;13.304;2023-09-07T12:08:25;6.38;;;2.92;;
31450;SDS011;18070;52.474;13.304;2023-09-07T12:10:51;5.25;;;3.47;;
31450;SDS011;18070;52.474;13.304;2023-09-07T12:13:17;9.32;;;4.00;;
31450;SDS011;18070;52.474;13.304;2023-09-07T12:15:42;8.05;;;4.20;;
31450;SDS011;18070;52.474;13.304;2023-09-07T12:18:08;8.18;;;3.58;;
31450;SDS011;18070;52.474;13.304;2023-09-07T12:20:33;10.27;;;4.03;;
31450;SDS011;18070;52.474;13.304;2023-09-07T12:23:02;7.78;;;4.03;;
31450;SDS011;18070;52.474;13.304;2023-09-07T12:25:28;9.05;;;4.28;;
31450;SDS011;18070;52.474;13.304;2023-09-07T12:27:53;5.78;;;4.10;;
31450;SDS011;18070;52.474;13.304;2023-09-07T12:30:19;6.78;;;4.00;;
31450;SDS011;18070;52.474;13.304;2023-09-07T12:32:47;12.25;;;4.38;;
31450;SDS011;18070;52.474;13.304;2023-09-07T12:35:13;8.23;;;4.45;;
31450;SDS011;18070;52.474;13.304;2023-09-07T12:37:39;6.50;;;4.13;;
31450;SDS011;18070;52.474;13.304;2023-09-07T12:40:05;10.15;;;4.72;;
31450;SDS011;18070;52.474;13.304;2023-09-07T12:42:36;7.53;;;4.60;;
31450;SDS011;18070;52.474;13.304;2023-09-07T12:45:03;9.88;;;4.38;;
31450;SDS011;18070;52.474;13.304;2023-09-07T12:47:30;7.47;;;4.45;;
31450;SDS011;18070;52.474;13.304;2023-09-07T12:49:55;8.73;;;4.53;;
31450;SDS011;18070;52.474;13.304;2023-09-07T12:52:21;8.40;;;4.65;;
31450;SDS011;18070;52.474;13.304;2023-09-07T12:54:47;11.40;;;3.78;;
31450;SDS011;18070;52.474;13.304;2023-09-07T12:57:13;8.75;;;4.53;;
31450;SDS011;18070;52.474;13.304;2023-09-07T12:59:39;11.23;;;4.47;;
31450;SDS011;18070;52.474;13.304;2023-09-07T13:02:05;8.45;;;4.43;;
31450;SDS011;18070;52.474;13.304;2023-09-07T13:04:31;9.70;;;4.43;;
31450;SDS011;18070;52.474;13.304;2023-09-07T13:06:57;7.90;;;4.03;;
31450;SDS011;18070;52.474;13.304;2023-09-07T13:09:23;15.18;;;5.05;;
31450;SDS011;18070;52.474;13.304;2023-09-07T13:11:49;6.25;;;3.88;;
31450;SDS011;18070;52.474;13.304;2023-09-07T13:14:15;7.65;;;4.57;;
31450;SDS011;18070;52.474;13.304;2023-09-07T13:16:41;8.90;;;4.22;;
31450;SDS011;18070;52.474;13.304;2023-09-07T13:19:09;6.07;;;3.70;;
31450;SDS011;18070;52.474;13.304;2023-09-07T13:21:36;6.03;;;4.60;;
31450;SDS011;18070;52.474;13.304;2023-09-07T13:24:02;5.72;;;4.38;;
31450;SDS011;18070;52.474;13.304;2023-09-07T13:26:28;9.05;;;4.22;;
31450;SDS011;18070;52.474;13.304;2023-09-07T13:28:55;9.57;;;5.10;;
31450;SDS011;18070;52.474;13.304;2023-09-07T13:31:21;10.00;;;4.97;;
31450;SDS011;18070;52.474;13.304;2023-09-07T13:33:48;11.07;;;4.45;;
31450;SDS011;18070;52.474;13.304;2023-09-07T13:36:15;15.73;;;4.28;;
31450;SDS011;18070;52.474;13.304;2023-09-07T13:38:42;6.15;;;4.32;;
31450;SDS011;18070;52.474;13.304;2023-09-07T13:41:08;7.13;;;4.28;;
31450;SDS011;18070;52.474;13.304;2023-09-07T13:43:34;7.60;;;3.80;;
31450;SDS011;18070;52.474;13.304;2023-09-07T13:46:00;16.95;;;4.30;;
31450;SDS011;18070;52.474;13.304;2023-09-07T13:48:27;12.02;;;4.38;;
31450;SDS011;18070;52.474;13.304;2023-09-07T13:50:53;7.50;;;3.88;;
31450;SDS011;18070;52.474;13.304;2023-09-07T13:53:19;5.97;;;3.75;;
31450;SDS011;18070;52.474;13.304;2023-09-07T13:55:45;6.00;;;3.40;;
31450;SDS011;18070;52.474;13.304;2023-09-07T13:58:11;9.00;;;3.80;;
31450;SDS011;18070;52.474;13.304;2023-09-07T14:00:37;9.57;;;3.85;;
31450;SDS011;18070;52.474;13.304;2023-09-07T14:03:03;10.43;;;4.22;;
31450;SDS011;18070;52.474;13.304;2023-09-07T14:05:29;5.95;;;3.95;;
31450;SDS011;18070;52.474;13.304;2023-09-07T14:07:55;8.63;;;3.70;;
31450;SDS011;18070;52.474;13.304;2023-09-07T14:10:24;8.70;;;3.40;;
31450;SDS011;18070;52.474;13.304;2023-09-07T14:12:50;6.22;;;4.40;;
31450;SDS011;18070;52.474;13.304;2023-09-07T14:15:16;15.27;;;4.20;;
31450;SDS011;18070;52.474;13.304;2023-09-07T14:17:42;6.82;;;4.22;;
31450;SDS011;18070;52.474;13.304;2023-09-07T14:20:09;6.28;;;4.10;;
31450;SDS011;18070;52.474;13.304;2023-09-07T14:22:35;10.35;;;4.05;;